sensor_id;sensor_type;location;lat;lon;timestamp;temperature;humidity
573;DHT22;271;51.114;13.780;2022-11-18T00:01:19;5.50;16.70
573;DHT22;271;51.114;13.780;2022-11-18T00:03:47;5.50;16.80
573;DHT22;271;51.114;13.780;2022-11-18T00:06:17;5.60;18.30
573;DHT22;271;51.114;13.780;2022-11-18T00:08:45;5.50;16.20
573;DHT22;271;51.114;13.780;2022-11-18T00:11:15;5.50;14.20
573;DHT22;271;51.114;13.780;2022-11-18T00:14:05;5.60;13.70
573;DHT22;271;51.114;13.780;2022-11-18T00:16:44;5.50;13.70
573;DHT22;271;51.114;13.780;2022-11-18T00:19:11;5.60;14.30
573;DHT22;271;51.114;13.780;2022-11-18T00:21:39;5.60;14.50
573;DHT22;271;51.114;13.780;2022-11-18T00:24:06;5.60;16.40
573;DHT22;271;51.114;13.780;2022-11-18T00:26:34;5.50;14.60
573;DHT22;271;51.114;13.780;2022-11-18T00:29:03;5.50;15.50
573;DHT22;271;51.114;13.780;2022-11-18T00:31:31;5.50;16.80
573;DHT22;271;51.114;13.780;2022-11-18T00:33:58;5.50;16.90
573;DHT22;271;51.114;13.780;2022-11-18T00:36:25;5.60;19.30
573;DHT22;271;51.114;13.780;2022-11-18T00:38:54;5.60;18.90
573;DHT22;271;51.114;13.780;2022-11-18T00:41:21;5.60;17.50
573;DHT22;271;51.114;13.780;2022-11-18T00:43:49;5.60;17.10
573;DHT22;271;51.114;13.780;2022-11-18T00:46:17;5.60;17.20
573;DHT22;271;51.114;13.780;2022-11-18T00:48:44;5.60;16.50
573;DHT22;271;51.114;13.780;2022-11-18T00:51:13;5.70;16.60
573;DHT22;271;51.114;13.780;2022-11-18T00:53:41;5.60;15.10
573;DHT22;271;51.114;13.780;2022-11-18T00:56:09;5.60;14.40
573;DHT22;271;51.114;13.780;2022-11-18T00:58:37;5.60;17.00
573;DHT22;271;51.114;13.780;2022-11-18T01:01:04;5.60;17.00
573;DHT22;271;51.114;13.780;2022-11-18T01:03:33;5.60;16.60
573;DHT22;271;51.114;13.780;2022-11-18T01:06:00;5.60;16.80
573;DHT22;271;51.114;13.780;2022-11-18T01:08:28;5.60;17.60
573;DHT22;271;51.114;13.780;2022-11-18T01:10:55;5.60;17.10
573;DHT22;271;51.114;13.780;2022-11-18T01:13:43;5.60;16.90
573;DHT22;271;51.114;13.780;2022-11-18T01:16:09;5.60;17.40
573;DHT22;271;51.114;13.780;2022-11-18T01:18:38;5.60;17.00
573;DHT22;271;51.114;13.780;2022-11-18T01:21:05;5.60;15.50
573;DHT22;271;51.114;13.780;2022-11-18T01:23:33;5.60;17.50
573;DHT22;271;51.114;13.780;2022-11-18T01:26:03;5.60;18.30
573;DHT22;271;51.114;13.780;2022-11-18T01:28:31;5.50;16.80
573;DHT22;271;51.114;13.780;2022-11-18T01:31:03;5.60;17.70
573;DHT22;271;51.114;13.780;2022-11-18T01:33:30;5.50;17.00
573;DHT22;271;51.114;13.780;2022-11-18T01:35:59;5.50;19.40
573;DHT22;271;51.114;13.780;2022-11-18T01:38:27;5.50;19.60
573;DHT22;271;51.114;13.780;2022-11-18T01:40:54;5.50;20.80
573;DHT22;271;51.114;13.780;2022-11-18T01:43:22;5.50;19.00
573;DHT22;271;51.114;13.780;2022-11-18T01:45:51;5.50;20.70
573;DHT22;271;51.114;13.780;2022-11-18T01:48:22;5.50;22.50
573;DHT22;271;51.114;13.780;2022-11-18T01:50:53;5.60;23.60
573;DHT22;271;51.114;13.780;2022-11-18T01:53:27;5.60;20.10
573;DHT22;271;51.114;13.780;2022-11-18T01:55:57;5.50;18.00
573;DHT22;271;51.114;13.780;2022-11-18T01:58:33;5.50;19.90
573;DHT22;271;51.114;13.780;2022-11-18T02:01:02;5.50;20.30
573;DHT22;271;51.114;13.780;2022-11-18T02:03:31;5.50;22.40
573;DHT22;271;51.114;13.780;2022-11-18T02:05:59;5.50;24.30
573;DHT22;271;51.114;13.780;2022-11-18T02:08:29;5.50;22.80
573;DHT22;271;51.114;13.780;2022-11-18T02:10:57;5.50;20.30
573;DHT22;271;51.114;13.780;2022-11-18T02:13:25;5.40;23.40
573;DHT22;271;51.114;13.780;2022-11-18T02:15:58;5.40;25.10
573;DHT22;271;51.114;13.780;2022-11-18T02:18:35;5.50;26.70
573;DHT22;271;51.114;13.780;2022-11-18T02:21:16;5.60;26.80
573;DHT22;271;51.114;13.780;2022-11-18T02:24:02;5.50;24.40
573;DHT22;271;51.114;13.780;2022-11-18T02:29:42;5.50;26.30
573;DHT22;271;51.114;13.780;2022-11-18T02:32:13;5.50;26.50
573;DHT22;271;51.114;13.780;2022-11-18T02:34:48;5.50;24.70
573;DHT22;271;51.114;13.780;2022-11-18T02:37:20;5.50;27.40
573;DHT22;271;51.114;13.780;2022-11-18T02:39:53;5.60;28.30
573;DHT22;271;51.114;13.780;2022-11-18T02:42:22;5.60;28.30
573;DHT22;271;51.114;13.780;2022-11-18T02:44:56;5.60;24.90
573;DHT22;271;51.114;13.780;2022-11-18T02:47:26;5.50;22.00
573;DHT22;271;51.114;13.780;2022-11-18T02:49:58;5.50;24.40
573;DHT22;271;51.114;13.780;2022-11-18T02:52:26;5.50;26.30
573;DHT22;271;51.114;13.780;2022-11-18T02:54:54;5.50;24.80
573;DHT22;271;51.114;13.780;2022-11-18T02:57:23;5.50;24.20
573;DHT22;271;51.114;13.780;2022-11-18T02:59:52;5.50;25.40
573;DHT22;271;51.114;13.780;2022-11-18T03:02:20;5.70;27.30
573;DHT22;271;51.114;13.780;2022-11-18T03:04:50;5.60;25.40
573;DHT22;271;51.114;13.780;2022-11-18T03:07:23;5.60;24.60
573;DHT22;271;51.114;13.780;2022-11-18T03:09:52;5.60;23.30
573;DHT22;271;51.114;13.780;2022-11-18T03:12:26;5.60;22.70
573;DHT22;271;51.114;13.780;2022-11-18T03:15:05;5.60;22.30
573;DHT22;271;51.114;13.780;2022-11-18T03:17:43;5.60;20.80
573;DHT22;271;51.114;13.780;2022-11-18T03:20:18;5.60;20.90
573;DHT22;271;51.114;13.780;2022-11-18T03:22:52;5.70;22.00
573;DHT22;271;51.114;13.780;2022-11-18T03:25:25;5.70;20.50
573;DHT22;271;51.114;13.780;2022-11-18T03:27:56;5.70;20.40
573;DHT22;271;51.114;13.780;2022-11-18T03:30:29;5.60;19.90
573;DHT22;271;51.114;13.780;2022-11-18T03:33:00;5.60;18.90
573;DHT22;271;51.114;13.780;2022-11-18T03:35:31;5.50;17.90
573;DHT22;271;51.114;13.780;2022-11-18T03:38:03;5.50;18.90
573;DHT22;271;51.114;13.780;2022-11-18T03:40:35;5.40;18.40
573;DHT22;271;51.114;13.780;2022-11-18T03:43:07;5.30;17.40
573;DHT22;271;51.114;13.780;2022-11-18T03:45:41;5.20;16.50
573;DHT22;271;51.114;13.780;2022-11-18T03:48:13;5.20;16.50
573;DHT22;271;51.114;13.780;2022-11-18T03:50:43;5.10;14.10
573;DHT22;271;51.114;13.780;2022-11-18T03:53:13;5.00;13.80
573;DHT22;271;51.114;13.780;2022-11-18T03:55:45;5.00;14.20
573;DHT22;271;51.114;13.780;2022-11-18T03:58:18;5.00;15.30
573;DHT22;271;51.114;13.780;2022-11-18T04:00:53;5.10;15.40
573;DHT22;271;51.114;13.780;2022-11-18T04:03:22;5.10;15.10
573;DHT22;271;51.114;13.780;2022-11-18T04:05:55;5.10;13.80
573;DHT22;271;51.114;13.780;2022-11-18T04:08:28;5.10;14.20
573;DHT22;271;51.114;13.780;2022-11-18T04:11:00;5.10;11.00
573;DHT22;271;51.114;13.780;2022-11-18T04:13:31;5.00;7.80
573;DHT22;271;51.114;13.780;2022-11-18T04:16:00;4.90;6.60
573;DHT22;271;51.114;13.780;2022-11-18T04:18:28;4.90;6.80
573;DHT22;271;51.114;13.780;2022-11-18T04:20:55;4.80;7.10
573;DHT22;271;51.114;13.780;2022-11-18T04:23:22;4.80;9.10
573;DHT22;271;51.114;13.780;2022-11-18T04:25:50;4.80;9.80
573;DHT22;271;51.114;13.780;2022-11-18T04:28:17;4.80;10.20
573;DHT22;271;51.114;13.780;2022-11-18T04:30:45;4.80;10.10
573;DHT22;271;51.114;13.780;2022-11-18T04:33:13;4.70;10.10
573;DHT22;271;51.114;13.780;2022-11-18T04:35:41;4.80;9.40
573;DHT22;271;51.114;13.780;2022-11-18T04:38:08;4.70;6.80
573;DHT22;271;51.114;13.780;2022-11-18T04:40:35;4.70;7.70
573;DHT22;271;51.114;13.780;2022-11-18T04:43:03;4.70;6.10
573;DHT22;271;51.114;13.780;2022-11-18T04:45:30;4.60;3.80
573;DHT22;271;51.114;13.780;2022-11-18T04:47:58;4.50;1.00
573;DHT22;271;51.114;13.780;2022-11-18T04:50:26;4.50;1.00
573;DHT22;271;51.114;13.780;2022-11-18T04:52:54;4.40;1.00
573;DHT22;271;51.114;13.780;2022-11-18T04:55:21;4.30;1.00
573;DHT22;271;51.114;13.780;2022-11-18T04:57:48;4.40;3.50
573;DHT22;271;51.114;13.780;2022-11-18T05:00:16;4.20;2.90
573;DHT22;271;51.114;13.780;2022-11-18T05:02:44;4.20;2.60
573;DHT22;271;51.114;13.780;2022-11-18T05:05:11;4.10;6.30
573;DHT22;271;51.114;13.780;2022-11-18T05:07:40;4.10;8.60
573;DHT22;271;51.114;13.780;2022-11-18T05:10:08;4.20;11.20
573;DHT22;271;51.114;13.780;2022-11-18T05:12:35;4.20;10.20
573;DHT22;271;51.114;13.780;2022-11-18T05:15:14;4.30;8.60
573;DHT22;271;51.114;13.780;2022-11-18T05:17:42;4.20;5.60
573;DHT22;271;51.114;13.780;2022-11-18T05:20:10;4.20;4.90
573;DHT22;271;51.114;13.780;2022-11-18T05:22:38;4.20;2.40
573;DHT22;271;51.114;13.780;2022-11-18T05:25:08;4.20;1.00
573;DHT22;271;51.114;13.780;2022-11-18T05:27:35;4.10;1.00
573;DHT22;271;51.114;13.780;2022-11-18T05:30:03;4.10;4.90
573;DHT22;271;51.114;13.780;2022-11-18T05:32:31;4.10;6.40
573;DHT22;271;51.114;13.780;2022-11-18T05:34:58;4.00;5.20
573;DHT22;271;51.114;13.780;2022-11-18T05:37:26;4.10;3.90
573;DHT22;271;51.114;13.780;2022-11-18T05:39:53;4.00;1.00
573;DHT22;271;51.114;13.780;2022-11-18T05:42:22;4.00;1.00
573;DHT22;271;51.114;13.780;2022-11-18T05:45:07;4.00;1.20
573;DHT22;271;51.114;13.780;2022-11-18T05:47:35;4.00;1.00
573;DHT22;271;51.114;13.780;2022-11-18T05:50:23;4.00;3.40
573;DHT22;271;51.114;13.780;2022-11-18T05:52:51;4.00;5.00
573;DHT22;271;51.114;13.780;2022-11-18T05:55:19;4.00;4.70
573;DHT22;271;51.114;13.780;2022-11-18T05:57:49;4.00;2.30
573;DHT22;271;51.114;13.780;2022-11-18T06:00:17;3.90;2.10
573;DHT22;271;51.114;13.780;2022-11-18T06:02:46;4.00;1.00
573;DHT22;271;51.114;13.780;2022-11-18T06:05:16;3.90;1.00
573;DHT22;271;51.114;13.780;2022-11-18T06:07:45;3.80;1.00
573;DHT22;271;51.114;13.780;2022-11-18T06:10:16;3.80;1.00
573;DHT22;271;51.114;13.780;2022-11-18T06:12:49;3.90;1.00
573;DHT22;271;51.114;13.780;2022-11-18T06:15:20;3.90;1.00
573;DHT22;271;51.114;13.780;2022-11-18T06:17:50;3.80;1.00
573;DHT22;271;51.114;13.780;2022-11-18T06:20:21;3.80;1.00
573;DHT22;271;51.114;13.780;2022-11-18T06:22:52;3.80;1.00
573;DHT22;271;51.114;13.780;2022-11-18T06:25:20;3.80;1.00
573;DHT22;271;51.114;13.780;2022-11-18T06:27:50;3.70;1.00
573;DHT22;271;51.114;13.780;2022-11-18T06:30:17;3.70;1.00
573;DHT22;271;51.114;13.780;2022-11-18T06:32:45;3.80;1.00
573;DHT22;271;51.114;13.780;2022-11-18T06:35:12;3.80;1.00
573;DHT22;271;51.114;13.780;2022-11-18T06:37:40;3.70;1.00
573;DHT22;271;51.114;13.780;2022-11-18T06:40:08;3.70;1.00
573;DHT22;271;51.114;13.780;2022-11-18T06:42:36;3.70;1.00
573;DHT22;271;51.114;13.780;2022-11-18T06:45:22;3.70;1.00
573;DHT22;271;51.114;13.780;2022-11-18T06:47:49;3.70;1.00
573;DHT22;271;51.114;13.780;2022-11-18T06:50:17;3.60;1.00
573;DHT22;271;51.114;13.780;2022-11-18T06:52:44;3.60;1.00
573;DHT22;271;51.114;13.780;2022-11-18T06:55:11;3.50;1.00
573;DHT22;271;51.114;13.780;2022-11-18T06:57:39;3.50;1.00
573;DHT22;271;51.114;13.780;2022-11-18T07:00:07;3.50;1.00
573;DHT22;271;51.114;13.780;2022-11-18T07:02:36;3.50;1.00
573;DHT22;271;51.114;13.780;2022-11-18T07:05:04;3.50;1.00
573;DHT22;271;51.114;13.780;2022-11-18T07:07:33;3.50;1.00
573;DHT22;271;51.114;13.780;2022-11-18T07:10:01;3.40;1.00
573;DHT22;271;51.114;13.780;2022-11-18T07:12:28;3.50;1.00
573;DHT22;271;51.114;13.780;2022-11-18T07:14:56;3.50;1.00
573;DHT22;271;51.114;13.780;2022-11-18T07:17:23;3.60;1.00
573;DHT22;271;51.114;13.780;2022-11-18T07:19:52;3.40;1.00
573;DHT22;271;51.114;13.780;2022-11-18T07:22:19;3.30;1.00
573;DHT22;271;51.114;13.780;2022-11-18T07:24:47;3.30;1.00
573;DHT22;271;51.114;13.780;2022-11-18T07:27:14;3.20;1.00
573;DHT22;271;51.114;13.780;2022-11-18T07:29:41;3.20;1.00
573;DHT22;271;51.114;13.780;2022-11-18T07:32:09;3.10;1.00
573;DHT22;271;51.114;13.780;2022-11-18T07:34:36;3.10;1.00
573;DHT22;271;51.114;13.780;2022-11-18T07:37:05;3.00;1.00
573;DHT22;271;51.114;13.780;2022-11-18T07:39:32;3.00;1.00
573;DHT22;271;51.114;13.780;2022-11-18T07:42:00;3.00;1.00
573;DHT22;271;51.114;13.780;2022-11-18T07:44:27;3.00;1.00
573;DHT22;271;51.114;13.780;2022-11-18T07:46:54;2.90;1.00
573;DHT22;271;51.114;13.780;2022-11-18T07:49:22;2.90;1.00
573;DHT22;271;51.114;13.780;2022-11-18T07:51:49;2.90;1.00
573;DHT22;271;51.114;13.780;2022-11-18T07:54:19;3.00;1.00
573;DHT22;271;51.114;13.780;2022-11-18T07:56:46;2.90;1.00
573;DHT22;271;51.114;13.780;2022-11-18T07:59:14;2.80;1.00
573;DHT22;271;51.114;13.780;2022-11-18T08:01:41;2.80;1.00
573;DHT22;271;51.114;13.780;2022-11-18T08:04:10;2.80;1.00
573;DHT22;271;51.114;13.780;2022-11-18T08:06:38;2.80;1.00
573;DHT22;271;51.114;13.780;2022-11-18T08:09:06;2.80;1.00
573;DHT22;271;51.114;13.780;2022-11-18T08:11:35;2.70;1.00
573;DHT22;271;51.114;13.780;2022-11-18T08:14:02;2.60;1.00
573;DHT22;271;51.114;13.780;2022-11-18T08:16:32;2.60;1.00
573;DHT22;271;51.114;13.780;2022-11-18T08:18:59;2.50;1.00
573;DHT22;271;51.114;13.780;2022-11-18T08:21:27;2.60;1.00
573;DHT22;271;51.114;13.780;2022-11-18T08:23:56;2.60;3.90
573;DHT22;271;51.114;13.780;2022-11-18T08:26:24;2.80;1.90
573;DHT22;271;51.114;13.780;2022-11-18T08:28:53;2.70;1.00
573;DHT22;271;51.114;13.780;2022-11-18T08:31:22;2.60;1.00
573;DHT22;271;51.114;13.780;2022-11-18T08:33:53;2.60;1.00
573;DHT22;271;51.114;13.780;2022-11-18T08:36:22;2.60;2.20
573;DHT22;271;51.114;13.780;2022-11-18T08:38:51;2.60;1.00
573;DHT22;271;51.114;13.780;2022-11-18T08:41:20;2.60;1.00
573;DHT22;271;51.114;13.780;2022-11-18T08:43:50;2.60;1.00
573;DHT22;271;51.114;13.780;2022-11-18T08:46:19;2.60;3.50
573;DHT22;271;51.114;13.780;2022-11-18T08:48:46;2.60;2.50
573;DHT22;271;51.114;13.780;2022-11-18T08:51:14;2.60;1.00
573;DHT22;271;51.114;13.780;2022-11-18T08:53:42;2.60;1.00
573;DHT22;271;51.114;13.780;2022-11-18T08:56:13;2.50;1.00
573;DHT22;271;51.114;13.780;2022-11-18T08:58:41;2.50;1.00
573;DHT22;271;51.114;13.780;2022-11-18T09:01:08;2.60;1.90
573;DHT22;271;51.114;13.780;2022-11-18T09:03:37;2.60;1.20
573;DHT22;271;51.114;13.780;2022-11-18T09:06:06;2.50;1.00
573;DHT22;271;51.114;13.780;2022-11-18T09:08:34;2.50;1.00
573;DHT22;271;51.114;13.780;2022-11-18T09:11:05;2.40;1.00
573;DHT22;271;51.114;13.780;2022-11-18T09:13:32;2.40;1.00
573;DHT22;271;51.114;13.780;2022-11-18T09:16:00;2.40;1.00
573;DHT22;271;51.114;13.780;2022-11-18T09:18:28;2.40;1.00
573;DHT22;271;51.114;13.780;2022-11-18T09:20:59;2.40;1.00
573;DHT22;271;51.114;13.780;2022-11-18T09:23:27;2.40;1.00
573;DHT22;271;51.114;13.780;2022-11-18T09:25:58;2.30;1.00
573;DHT22;271;51.114;13.780;2022-11-18T09:28:25;2.20;1.00
573;DHT22;271;51.114;13.780;2022-11-18T09:30:53;2.10;1.00
573;DHT22;271;51.114;13.780;2022-11-18T09:33:20;2.10;1.00
573;DHT22;271;51.114;13.780;2022-11-18T09:35:47;2.20;1.00
573;DHT22;271;51.114;13.780;2022-11-18T09:38:16;2.20;1.00
573;DHT22;271;51.114;13.780;2022-11-18T09:40:51;2.00;1.00
573;DHT22;271;51.114;13.780;2022-11-18T09:43:26;2.00;1.00
573;DHT22;271;51.114;13.780;2022-11-18T09:46:01;1.90;1.00
573;DHT22;271;51.114;13.780;2022-11-18T09:48:30;1.90;1.00
573;DHT22;271;51.114;13.780;2022-11-18T09:51:11;1.80;1.00
573;DHT22;271;51.114;13.780;2022-11-18T09:53:41;1.80;1.00
573;DHT22;271;51.114;13.780;2022-11-18T09:56:13;1.70;1.00
573;DHT22;271;51.114;13.780;2022-11-18T09:58:42;1.60;1.00
573;DHT22;271;51.114;13.780;2022-11-18T10:01:12;1.60;1.00
573;DHT22;271;51.114;13.780;2022-11-18T10:03:40;1.50;1.00
573;DHT22;271;51.114;13.780;2022-11-18T10:06:19;1.50;1.00
573;DHT22;271;51.114;13.780;2022-11-18T10:08:57;1.50;1.00
573;DHT22;271;51.114;13.780;2022-11-18T10:11:33;1.40;1.00
573;DHT22;271;51.114;13.780;2022-11-18T10:14:10;1.50;1.00
573;DHT22;271;51.114;13.780;2022-11-18T10:16:47;1.40;1.00
573;DHT22;271;51.114;13.780;2022-11-18T10:19:24;1.30;1.00
573;DHT22;271;51.114;13.780;2022-11-18T10:22:10;1.30;1.00
573;DHT22;271;51.114;13.780;2022-11-18T10:24:44;1.30;1.00
573;DHT22;271;51.114;13.780;2022-11-18T10:27:15;1.30;1.00
573;DHT22;271;51.114;13.780;2022-11-18T10:29:44;1.20;1.00
573;DHT22;271;51.114;13.780;2022-11-18T10:32:13;1.30;1.00
573;DHT22;271;51.114;13.780;2022-11-18T10:34:47;1.30;1.00
573;DHT22;271;51.114;13.780;2022-11-18T10:37:22;1.20;1.00
573;DHT22;271;51.114;13.780;2022-11-18T10:39:53;1.20;1.00
573;DHT22;271;51.114;13.780;2022-11-18T10:42:25;1.20;1.00
573;DHT22;271;51.114;13.780;2022-11-18T10:44:54;1.30;1.00
573;DHT22;271;51.114;13.780;2022-11-18T10:47:27;1.30;1.00
573;DHT22;271;51.114;13.780;2022-11-18T10:49:57;1.30;1.00
573;DHT22;271;51.114;13.780;2022-11-18T10:52:26;1.30;1.00
573;DHT22;271;51.114;13.780;2022-11-18T10:55:07;1.30;1.00
573;DHT22;271;51.114;13.780;2022-11-18T10:57:38;1.20;1.00
573;DHT22;271;51.114;13.780;2022-11-18T11:00:35;1.10;1.00
573;DHT22;271;51.114;13.780;2022-11-18T11:03:21;1.20;1.00
573;DHT22;271;51.114;13.780;2022-11-18T11:06:31;1.20;1.00
573;DHT22;271;51.114;13.780;2022-11-18T11:09:01;1.20;1.00
573;DHT22;271;51.114;13.780;2022-11-18T11:11:32;1.20;1.00
573;DHT22;271;51.114;13.780;2022-11-18T11:14:15;1.20;1.00
573;DHT22;271;51.114;13.780;2022-11-18T11:16:49;1.10;1.00
573;DHT22;271;51.114;13.780;2022-11-18T11:19:22;1.10;1.00
573;DHT22;271;51.114;13.780;2022-11-18T11:21:51;1.20;1.00
573;DHT22;271;51.114;13.780;2022-11-18T11:24:20;1.20;1.00
573;DHT22;271;51.114;13.780;2022-11-18T11:27:03;1.20;1.00
573;DHT22;271;51.114;13.780;2022-11-18T11:29:44;1.20;1.00
573;DHT22;271;51.114;13.780;2022-11-18T11:32:23;1.20;1.00
573;DHT22;271;51.114;13.780;2022-11-18T11:34:59;1.30;1.00
573;DHT22;271;51.114;13.780;2022-11-18T11:37:39;1.30;1.00
573;DHT22;271;51.114;13.780;2022-11-18T11:40:21;1.20;1.00
573;DHT22;271;51.114;13.780;2022-11-18T11:43:06;1.20;1.00
573;DHT22;271;51.114;13.780;2022-11-18T11:45:42;1.10;1.00
573;DHT22;271;51.114;13.780;2022-11-18T11:48:29;1.10;1.00
573;DHT22;271;51.114;13.780;2022-11-18T11:51:03;1.10;1.00
573;DHT22;271;51.114;13.780;2022-11-18T11:53:58;1.10;1.00
573;DHT22;271;51.114;13.780;2022-11-18T11:56:32;1.10;1.00
573;DHT22;271;51.114;13.780;2022-11-18T11:59:15;1.10;1.00
573;DHT22;271;51.114;13.780;2022-11-18T12:02:30;1.20;1.00
573;DHT22;271;51.114;13.780;2022-11-18T12:05:07;1.10;1.00
573;DHT22;271;51.114;13.780;2022-11-18T12:07:45;1.10;1.00
573;DHT22;271;51.114;13.780;2022-11-18T12:10:23;1.10;1.00
573;DHT22;271;51.114;13.780;2022-11-18T12:13:10;1.10;1.00
573;DHT22;271;51.114;13.780;2022-11-18T12:15:50;1.00;1.00
573;DHT22;271;51.114;13.780;2022-11-18T12:18:23;1.00;1.00
573;DHT22;271;51.114;13.780;2022-11-18T12:21:02;1.00;1.00
573;DHT22;271;51.114;13.780;2022-11-18T12:23:30;1.00;1.00
573;DHT22;271;51.114;13.780;2022-11-18T12:26:01;1.00;1.00
573;DHT22;271;51.114;13.780;2022-11-18T12:28:32;1.00;1.00
573;DHT22;271;51.114;13.780;2022-11-18T12:31:35;1.00;1.00
573;DHT22;271;51.114;13.780;2022-11-18T12:34:15;1.00;1.00
573;DHT22;271;51.114;13.780;2022-11-18T12:36:45;1.00;1.00
573;DHT22;271;51.114;13.780;2022-11-18T12:42:41;0.90;1.00
573;DHT22;271;51.114;13.780;2022-11-18T12:45:54;0.80;1.00
573;DHT22;271;51.114;13.780;2022-11-18T12:48:40;0.70;1.00
573;DHT22;271;51.114;13.780;2022-11-18T12:54:26;0.60;1.00
573;DHT22;271;51.114;13.780;2022-11-18T12:56:56;0.60;1.00
573;DHT22;271;51.114;13.780;2022-11-18T12:59:29;0.50;1.00
573;DHT22;271;51.114;13.780;2022-11-18T13:02:05;0.40;1.00
573;DHT22;271;51.114;13.780;2022-11-18T13:04:43;0.40;1.00
573;DHT22;271;51.114;13.780;2022-11-18T13:07:12;0.40;1.00
573;DHT22;271;51.114;13.780;2022-11-18T13:09:55;0.50;1.00
573;DHT22;271;51.114;13.780;2022-11-18T13:12:25;0.50;1.00
573;DHT22;271;51.114;13.780;2022-11-18T13:14:54;0.50;1.00
573;DHT22;271;51.114;13.780;2022-11-18T13:17:39;0.40;1.00
573;DHT22;271;51.114;13.780;2022-11-18T13:20:24;0.50;1.00
573;DHT22;271;51.114;13.780;2022-11-18T13:22:57;0.50;1.00
573;DHT22;271;51.114;13.780;2022-11-18T13:25:43;0.40;1.00
573;DHT22;271;51.114;13.780;2022-11-18T13:28:20;0.30;1.00
573;DHT22;271;51.114;13.780;2022-11-18T13:30:55;0.20;1.00
573;DHT22;271;51.114;13.780;2022-11-18T13:33:26;0.30;1.00
573;DHT22;271;51.114;13.780;2022-11-18T13:35:55;0.30;1.00
573;DHT22;271;51.114;13.780;2022-11-18T13:38:27;0.20;1.00
573;DHT22;271;51.114;13.780;2022-11-18T13:40:55;0.20;1.00
573;DHT22;271;51.114;13.780;2022-11-18T13:43:33;0.40;1.00
573;DHT22;271;51.114;13.780;2022-11-18T13:46:04;0.20;1.00
573;DHT22;271;51.114;13.780;2022-11-18T13:48:36;0.20;1.00
573;DHT22;271;51.114;13.780;2022-11-18T13:51:08;0.20;1.00
573;DHT22;271;51.114;13.780;2022-11-18T13:53:37;0.20;1.00
573;DHT22;271;51.114;13.780;2022-11-18T13:56:07;0.10;1.00
573;DHT22;271;51.114;13.780;2022-11-18T13:58:42;0.10;1.00
573;DHT22;271;51.114;13.780;2022-11-18T14:01:14;0.20;1.00
573;DHT22;271;51.114;13.780;2022-11-18T14:03:48;0.10;1.00
573;DHT22;271;51.114;13.780;2022-11-18T14:06:25;0.00;1.00
573;DHT22;271;51.114;13.780;2022-11-18T14:09:04;0.00;1.00
573;DHT22;271;51.114;13.780;2022-11-18T14:11:37;0.00;1.00
573;DHT22;271;51.114;13.780;2022-11-18T14:14:04;0.00;1.00
573;DHT22;271;51.114;13.780;2022-11-18T14:16:34;0.00;1.00
573;DHT22;271;51.114;13.780;2022-11-18T14:19:02;-0.10;1.00
573;DHT22;271;51.114;13.780;2022-11-18T14:21:33;-0.10;1.00
573;DHT22;271;51.114;13.780;2022-11-18T14:24:01;0.00;1.00
573;DHT22;271;51.114;13.780;2022-11-18T14:26:31;0.00;1.00
573;DHT22;271;51.114;13.780;2022-11-18T14:29:01;0.00;1.00
573;DHT22;271;51.114;13.780;2022-11-18T14:31:30;0.00;1.00
573;DHT22;271;51.114;13.780;2022-11-18T14:34:11;0.00;1.00
573;DHT22;271;51.114;13.780;2022-11-18T14:36:43;-0.10;1.00
573;DHT22;271;51.114;13.780;2022-11-18T14:39:12;-0.10;1.00
573;DHT22;271;51.114;13.780;2022-11-18T14:41:45;-0.10;1.00
573;DHT22;271;51.114;13.780;2022-11-18T14:44:16;-0.20;1.00
573;DHT22;271;51.114;13.780;2022-11-18T14:46:46;-0.10;1.00
573;DHT22;271;51.114;13.780;2022-11-18T14:49:17;-0.10;1.00
573;DHT22;271;51.114;13.780;2022-11-18T14:51:48;-0.10;1.00
573;DHT22;271;51.114;13.780;2022-11-18T14:54:17;-0.20;1.00
573;DHT22;271;51.114;13.780;2022-11-18T14:56:46;-0.10;1.00
573;DHT22;271;51.114;13.780;2022-11-18T14:59:16;-0.20;1.00
573;DHT22;271;51.114;13.780;2022-11-18T15:01:44;-0.20;1.00
573;DHT22;271;51.114;13.780;2022-11-18T15:04:11;-0.20;1.00
573;DHT22;271;51.114;13.780;2022-11-18T15:06:39;-0.20;1.00
573;DHT22;271;51.114;13.780;2022-11-18T15:09:08;-0.20;1.00
573;DHT22;271;51.114;13.780;2022-11-18T15:11:35;-0.20;1.00
573;DHT22;271;51.114;13.780;2022-11-18T15:14:03;-0.20;1.00
573;DHT22;271;51.114;13.780;2022-11-18T15:16:31;-0.20;1.00
573;DHT22;271;51.114;13.780;2022-11-18T15:19:00;-0.20;1.00
573;DHT22;271;51.114;13.780;2022-11-18T15:21:29;0.00;1.00
573;DHT22;271;51.114;13.780;2022-11-18T15:23:56;-0.20;1.00
573;DHT22;271;51.114;13.780;2022-11-18T15:26:27;-0.10;1.00
573;DHT22;271;51.114;13.780;2022-11-18T15:28:56;-0.20;1.00
573;DHT22;271;51.114;13.780;2022-11-18T15:31:24;-0.20;1.00
573;DHT22;271;51.114;13.780;2022-11-18T15:33:52;-0.20;1.00
573;DHT22;271;51.114;13.780;2022-11-18T15:36:21;-0.20;1.00
573;DHT22;271;51.114;13.780;2022-11-18T15:38:49;-0.30;1.00
573;DHT22;271;51.114;13.780;2022-11-18T15:41:25;-0.10;1.00
573;DHT22;271;51.114;13.780;2022-11-18T15:43:54;-0.20;1.00
573;DHT22;271;51.114;13.780;2022-11-18T15:46:24;-0.30;1.00
573;DHT22;271;51.114;13.780;2022-11-18T15:48:52;-0.40;1.00
573;DHT22;271;51.114;13.780;2022-11-18T15:51:21;-0.30;1.00
573;DHT22;271;51.114;13.780;2022-11-18T15:53:49;-0.30;1.00
573;DHT22;271;51.114;13.780;2022-11-18T15:56:26;-0.30;1.00
573;DHT22;271;51.114;13.780;2022-11-18T15:58:55;-0.30;1.00
573;DHT22;271;51.114;13.780;2022-11-18T16:01:24;-0.30;1.00
573;DHT22;271;51.114;13.780;2022-11-18T16:03:53;-0.30;1.00
573;DHT22;271;51.114;13.780;2022-11-18T16:06:21;-0.10;1.00
573;DHT22;271;51.114;13.780;2022-11-18T16:08:49;-0.30;1.00
573;DHT22;271;51.114;13.780;2022-11-18T16:11:17;-0.30;1.00
573;DHT22;271;51.114;13.780;2022-11-18T16:14:04;-0.30;1.00
573;DHT22;271;51.114;13.780;2022-11-18T16:16:32;-0.20;1.00
573;DHT22;271;51.114;13.780;2022-11-18T16:19:02;-0.20;1.00
573;DHT22;271;51.114;13.780;2022-11-18T16:21:32;-0.20;1.00
573;DHT22;271;51.114;13.780;2022-11-18T16:24:02;-0.30;1.00
573;DHT22;271;51.114;13.780;2022-11-18T16:26:30;-0.30;1.00
573;DHT22;271;51.114;13.780;2022-11-18T16:28:58;-0.30;1.00
573;DHT22;271;51.114;13.780;2022-11-18T16:31:27;-0.30;1.00
573;DHT22;271;51.114;13.780;2022-11-18T16:34:08;-0.20;1.00
573;DHT22;271;51.114;13.780;2022-11-18T16:36:36;-0.40;1.00
573;DHT22;271;51.114;13.780;2022-11-18T16:39:05;-0.30;1.00
573;DHT22;271;51.114;13.780;2022-11-18T16:41:33;-0.30;1.00
573;DHT22;271;51.114;13.780;2022-11-18T16:44:03;-0.40;1.00
573;DHT22;271;51.114;13.780;2022-11-18T16:46:34;-0.30;1.00
573;DHT22;271;51.114;13.780;2022-11-18T16:49:02;-0.30;1.00
573;DHT22;271;51.114;13.780;2022-11-18T16:51:31;-0.20;1.00
573;DHT22;271;51.114;13.780;2022-11-18T16:53:59;-0.10;1.00
573;DHT22;271;51.114;13.780;2022-11-18T16:56:29;-0.20;1.00
573;DHT22;271;51.114;13.780;2022-11-18T16:58:57;-0.20;1.00
573;DHT22;271;51.114;13.780;2022-11-18T17:01:25;-0.10;1.00
573;DHT22;271;51.114;13.780;2022-11-18T17:03:54;-0.20;1.00
573;DHT22;271;51.114;13.780;2022-11-18T17:06:23;0.00;1.00
573;DHT22;271;51.114;13.780;2022-11-18T17:08:51;-0.20;1.00
573;DHT22;271;51.114;13.780;2022-11-18T17:11:19;-0.20;1.00
573;DHT22;271;51.114;13.780;2022-11-18T17:13:46;-0.30;1.00
573;DHT22;271;51.114;13.780;2022-11-18T17:16:15;-0.30;1.00
573;DHT22;271;51.114;13.780;2022-11-18T17:18:43;-0.30;1.00
573;DHT22;271;51.114;13.780;2022-11-18T17:21:14;-0.40;1.00